Time;durP1;ratioP1;P1;durP2;ratioP2;P2;SDS_P1;SDS_P2;PMS_P1;PMS_P2;Temp;Humidity;BMP_temperature;BMP_pressure;BME280_temperature;BME280_humidity;BME280_pressure;Samples;Min_cycle;Max_cycle;Signal;HPM_P1;HPM_P2
2021/12/04 00:01:09;;;;;;;55.78;30.67;;;;;;;;;;5065770;28;20044;-63
2021/12/04 00:03:36;;;;;;;54.72;33.88;;;;;;;;;;5065310;28;20037;-63
2021/12/04 00:06:06;;;;;;;50.55;29.27;;;;;;;;;;5063149;28;20035;-63
2021/12/04 00:08:35;;;;;;;48.15;29.33;;;;;;;;;;5066190;28;20064;-63
2021/12/04 00:11:02;;;;;;;49.85;28.98;;;;;;;;;;5067524;28;20566;-63
2021/12/04 00:13:28;;;;;;;59.83;31.73;;;;;;;;;;5063487;28;20247;-63
2021/12/04 00:15:54;;;;;;;57.65;30.35;;;;;;;;;;5064192;28;20048;-63
2021/12/04 00:18:20;;;;;;;53.67;32.03;;;;;;;;;;5068224;28;20414;-63
2021/12/04 00:20:46;;;;;;;52.13;30.55;;;;;;;;;;5067935;28;20040;-63
2021/12/04 00:23:12;;;;;;;56.42;34.08;;;;;;;;;;5072852;28;20118;-63
2021/12/04 00:25:39;;;;;;;56.53;33.25;;;;;;;;;;5067230;28;20135;-63
2021/12/04 00:28:05;;;;;;;57.92;33.40;;;;;;;;;;5070671;28;20401;-63
2021/12/04 00:30:31;;;;;;;56.53;32.55;;;;;;;;;;5067301;28;20124;-63
2021/12/04 00:33:05;;;;;;;55.40;33.65;;;;;;;;;;5068061;28;20032;-62
2021/12/04 00:35:41;;;;;;;61.38;36.53;;;;;;;;;;5069504;28;20040;-63
2021/12/04 00:49:32;;;;;;;63.75;37.08;;;;;;;;;;5066558;28;20056;-63
2021/12/04 00:51:55;;;;;;;64.93;35.60;;;;;;;;;;5068003;28;20040;-62
2021/12/04 00:54:26;;;;;;;66.93;37.63;;;;;;;;;;5068397;28;20036;-63
2021/12/04 00:56:53;;;;;;;82.50;38.38;;;;;;;;;;5067713;28;20048;-63
2021/12/04 00:59:19;;;;;;;67.38;36.00;;;;;;;;;;5069179;28;20037;-63
2021/12/04 01:01:46;;;;;;;68.22;34.25;;;;;;;;;;5066407;28;20558;-63
2021/12/04 01:04:13;;;;;;;81.72;40.03;;;;;;;;;;5067454;28;20037;-63
2021/12/04 01:06:39;;;;;;;81.53;41.15;;;;;;;;;;5067307;28;20043;-63
2021/12/04 01:09:06;;;;;;;83.50;40.53;;;;;;;;;;5068424;28;20091;-63
2021/12/04 01:11:33;;;;;;;110.90;42.25;;;;;;;;;;5069422;28;20082;-63
2021/12/04 01:13:59;;;;;;;87.80;39.83;;;;;;;;;;5066100;28;20043;-63
2021/12/04 01:16:25;;;;;;;108.20;44.90;;;;;;;;;;5067990;28;20082;-63
2021/12/04 01:18:51;;;;;;;98.28;43.40;;;;;;;;;;5068879;28;20094;-64
2021/12/04 01:21:17;;;;;;;97.63;43.20;;;;;;;;;;5066974;28;20536;-63
2021/12/04 01:23:43;;;;;;;100.38;41.33;;;;;;;;;;5070584;28;20044;-62
2021/12/04 01:26:10;;;;;;;87.88;42.30;;;;;;;;;;5066865;28;20036;-63
2021/12/04 01:28:36;;;;;;;83.10;39.70;;;;;;;;;;5067387;28;20052;-63
2021/12/04 01:31:03;;;;;;;80.45;41.15;;;;;;;;;;5067915;28;20116;-63
2021/12/04 01:33:29;;;;;;;93.55;42.03;;;;;;;;;;5066741;28;20515;-63
2021/12/04 01:35:55;;;;;;;98.47;40.78;;;;;;;;;;5066425;28;20045;-63
2021/12/04 01:38:22;;;;;;;69.57;36.78;;;;;;;;;;5067229;28;20037;-63
2021/12/04 01:40:48;;;;;;;79.38;40.80;;;;;;;;;;5064304;28;20115;-63
2021/12/04 01:43:14;;;;;;;89.18;37.13;;;;;;;;;;5069096;28;20040;-63
2021/12/04 01:45:40;;;;;;;80.90;41.47;;;;;;;;;;5065510;28;20540;-63
2021/12/04 01:48:07;;;;;;;79.82;37.10;;;;;;;;;;5065551;28;20043;-63
2021/12/04 01:50:33;;;;;;;70.43;37.05;;;;;;;;;;5067713;28;20036;-63
2021/12/04 01:53:01;;;;;;;84.60;39.95;;;;;;;;;;5066489;28;20123;-63
2021/12/04 01:55:28;;;;;;;82.75;40.97;;;;;;;;;;5068157;28;20370;-63
2021/12/04 01:57:54;;;;;;;119.40;40.60;;;;;;;;;;5062219;28;20044;-62
2021/12/04 02:00:21;;;;;;;109.20;42.85;;;;;;;;;;5068137;28;20067;-63
2021/12/04 02:02:47;;;;;;;90.55;40.25;;;;;;;;;;5066569;28;20406;-63
2021/12/04 02:05:13;;;;;;;117.43;44.33;;;;;;;;;;5064351;28;20039;-63
2021/12/04 02:07:39;;;;;;;90.25;38.20;;;;;;;;;;5067253;28;20099;-63
2021/12/04 02:10:06;;;;;;;87.97;39.88;;;;;;;;;;5048150;28;20040;-63
2021/12/04 02:12:32;;;;;;;109.93;40.75;;;;;;;;;;5067040;28;20040;-63
2021/12/04 02:14:58;;;;;;;95.45;39.95;;;;;;;;;;5069251;28;20082;-63
2021/12/04 02:17:25;;;;;;;110.22;40.53;;;;;;;;;;5061564;28;20177;-63
2021/12/04 02:19:51;;;;;;;87.32;40.55;;;;;;;;;;5065885;28;20102;-63
2021/12/04 02:22:17;;;;;;;125.10;43.20;;;;;;;;;;5066045;28;20037;-63
2021/12/04 02:24:43;;;;;;;102.55;42.33;;;;;;;;;;5066977;28;20036;-64
2021/12/04 02:27:13;;;;;;;102.07;41.95;;;;;;;;;;5065128;28;20040;-63
2021/12/04 02:29:46;;;;;;;111.22;40.20;;;;;;;;;;5067032;28;20076;-63
2021/12/04 02:32:12;;;;;;;75.03;36.08;;;;;;;;;;5066305;28;20044;-63
2021/12/04 02:34:39;;;;;;;96.40;39.35;;;;;;;;;;5067386;28;20060;-63
2021/12/04 02:37:07;;;;;;;87.43;37.15;;;;;;;;;;5063974;28;20569;-63
2021/12/04 02:39:35;;;;;;;113.45;38.60;;;;;;;;;;5067238;28;20048;-63
2021/12/04 02:42:02;;;;;;;103.57;37.20;;;;;;;;;;5063987;28;20047;-63
2021/12/04 02:44:39;;;;;;;78.93;39.47;;;;;;;;;;5067466;28;20112;-63
2021/12/04 02:47:06;;;;;;;100.55;38.28;;;;;;;;;;5059391;28;20422;-63
2021/12/04 02:49:33;;;;;;;97.72;34.88;;;;;;;;;;5065420;28;20143;-63
2021/12/04 02:52:05;;;;;;;118.60;42.38;;;;;;;;;;5066601;28;20498;-63
2021/12/04 02:54:32;;;;;;;86.88;34.35;;;;;;;;;;5067711;28;20524;-63
2021/12/04 02:56:59;;;;;;;83.25;37.72;;;;;;;;;;5063929;28;20041;-63
2021/12/04 02:59:26;;;;;;;90.75;40.17;;;;;;;;;;5064765;28;20491;-63
2021/12/04 03:01:55;;;;;;;110.30;41.08;;;;;;;;;;5064892;28;20508;-63
2021/12/04 03:04:23;;;;;;;80.85;36.55;;;;;;;;;;5065473;28;20063;-63
2021/12/04 03:06:49;;;;;;;99.30;39.78;;;;;;;;;;5065959;28;20059;-63
2021/12/04 03:09:16;;;;;;;91.65;33.90;;;;;;;;;;5069117;28;20111;-63
2021/12/04 03:11:42;;;;;;;74.75;32.17;;;;;;;;;;5067648;28;20040;-63
2021/12/04 03:14:09;;;;;;;95.70;36.88;;;;;;;;;;5065053;28;20104;-63
2021/12/04 03:16:36;;;;;;;61.65;32.03;;;;;;;;;;5065606;28;20650;-63
2021/12/04 03:19:03;;;;;;;91.38;39.80;;;;;;;;;;5064976;28;20426;-63
2021/12/04 03:21:30;;;;;;;62.42;33.42;;;;;;;;;;5064209;28;20040;-63
2021/12/04 03:24:00;;;;;;;60.03;30.63;;;;;;;;;;5048818;28;20033;-63
2021/12/04 03:26:27;;;;;;;71.97;33.63;;;;;;;;;;5064404;28;20052;-63
2021/12/04 03:28:55;;;;;;;72.68;33.33;;;;;;;;;;5068518;28;20465;-63
2021/12/04 03:42:11;;;;;;;60.35;28.38;;;;;;;;;;5063357;28;20047;-63
2021/12/04 03:44:38;;;;;;;75.03;30.92;;;;;;;;;;5061508;28;20045;-63
2021/12/04 03:47:05;;;;;;;86.40;33.35;;;;;;;;;;5061363;28;20044;-63
2021/12/04 03:49:32;;;;;;;62.65;27.85;;;;;;;;;;5064676;28;20049;-63
2021/12/04 03:51:58;;;;;;;60.03;29.27;;;;;;;;;;5065471;28;20043;-63
2021/12/04 03:54:24;;;;;;;71.75;30.60;;;;;;;;;;5065898;28;20089;-63
2021/12/04 03:57:00;;;;;;;54.85;27.23;;;;;;;;;;5066351;28;20039;-63
2021/12/04 03:59:27;;;;;;;61.80;27.23;;;;;;;;;;5064072;28;20047;-63
2021/12/04 04:01:53;;;;;;;65.55;29.35;;;;;;;;;;5064019;28;20449;-63
2021/12/04 04:04:19;;;;;;;62.97;29.00;;;;;;;;;;5064264;28;20083;-63
2021/12/04 04:06:45;;;;;;;73.60;29.63;;;;;;;;;;5066067;28;20036;-63
2021/12/04 04:09:12;;;;;;;72.15;33.05;;;;;;;;;;5069266;28;20040;-63
2021/12/04 04:11:38;;;;;;;65.95;26.15;;;;;;;;;;5067219;28;20126;-63
2021/12/04 04:14:04;;;;;;;84.88;34.30;;;;;;;;;;5063704;28;20040;-63
2021/12/04 04:16:39;;;;;;;62.95;26.88;;;;;;;;;;5065048;28;20099;-63
2021/12/04 04:19:08;;;;;;;91.18;30.58;;;;;;;;;;5066156;28;20042;-63
2021/12/04 04:21:39;;;;;;;93.38;31.25;;;;;;;;;;5063104;28;20045;-63
2021/12/04 04:24:06;;;;;;;77.97;26.95;;;;;;;;;;5064984;28;20083;-63
2021/12/04 04:26:32;;;;;;;76.85;30.75;;;;;;;;;;5064701;28;20045;-63
2021/12/04 04:28:58;;;;;;;71.32;28.42;;;;;;;;;;5064628;28;20043;-63
2021/12/04 04:31:24;;;;;;;88.00;33.10;;;;;;;;;;5062489;28;20577;-63
2021/12/04 04:33:56;;;;;;;75.97;30.55;;;;;;;;;;5065988;28;20033;-63
2021/12/04 05:00:54;;;;;;;70.13;28.77;;;;;;;;;;5064061;28;20037;-63
2021/12/04 05:11:57;;;;;;;63.25;28.35;;;;;;;;;;5066430;28;20555;-63
2021/12/04 05:14:21;;;;;;;76.68;27.42;;;;;;;;;;5057801;28;20055;-63
2021/12/04 05:16:58;;;;;;;75.05;26.50;;;;;;;;;;5063762;28;20053;-63
2021/12/04 05:19:46;;;;;;;86.63;30.95;;;;;;;;;;5064935;28;20045;-63
2021/12/04 05:22:14;;;;;;;69.13;26.83;;;;;;;;;;5065913;28;20052;-63
2021/12/04 05:24:41;;;;;;;73.40;27.98;;;;;;;;;;5067874;28;20115;-63
2021/12/04 05:27:07;;;;;;;59.78;27.65;;;;;;;;;;5064613;28;20048;-63
2021/12/04 05:29:34;;;;;;;67.90;29.30;;;;;;;;;;5070792;28;20487;-63
2021/12/04 05:32:00;;;;;;;69.32;26.55;;;;;;;;;;5066317;28;20044;-63
2021/12/04 05:34:26;;;;;;;85.90;27.73;;;;;;;;;;5058165;28;20112;-63
2021/12/04 05:36:52;;;;;;;53.30;26.80;;;;;;;;;;5067219;28;20043;-63
2021/12/04 05:39:18;;;;;;;58.78;25.70;;;;;;;;;;5065446;28;20624;-62
2021/12/04 05:41:45;;;;;;;83.68;26.70;;;;;;;;;;5066411;28;20564;-63
2021/12/04 05:44:12;;;;;;;87.13;31.90;;;;;;;;;;5067836;28;20474;-63
2021/12/04 05:46:43;;;;;;;55.50;25.52;;;;;;;;;;5063944;28;20049;-63
2021/12/04 05:49:21;;;;;;;68.45;25.58;;;;;;;;;;5069771;28;20048;-63
2021/12/04 05:57:08;;;;;;;77.38;31.35;;;;;;;;;;5065943;28;20102;-62
2021/12/04 05:59:34;;;;;;;69.88;26.55;;;;;;;;;;5066314;28;20040;-63
2021/12/04 06:02:01;;;;;;;73.50;26.25;;;;;;;;;;5057031;28;20036;-63
2021/12/04 06:04:27;;;;;;;63.50;26.77;;;;;;;;;;5064553;28;20032;-63
2021/12/04 06:06:53;;;;;;;94.32;30.85;;;;;;;;;;5068804;28;20063;-63
2021/12/04 06:09:20;;;;;;;86.07;31.77;;;;;;;;;;5074513;28;20036;-63
2021/12/04 06:11:46;;;;;;;93.70;33.03;;;;;;;;;;5068163;28;20045;-63
2021/12/04 06:14:12;;;;;;;83.85;30.77;;;;;;;;;;5066447;28;20043;-63
2021/12/04 06:16:39;;;;;;;72.00;27.27;;;;;;;;;;5064245;28;20099;-63
2021/12/04 06:19:26;;;;;;;75.38;28.75;;;;;;;;;;5069789;28;20584;-63
2021/12/04 06:24:37;;;;;;;64.00;25.73;;;;;;;;;;5065908;28;20524;-63
2021/12/04 06:27:03;;;;;;;69.97;27.50;;;;;;;;;;5064942;28;20094;-63
2021/12/04 06:29:29;;;;;;;88.95;32.40;;;;;;;;;;5065745;28;20121;-63
2021/12/04 06:31:56;;;;;;;70.45;29.75;;;;;;;;;;5065536;28;20120;-63
2021/12/04 06:34:22;;;;;;;77.25;28.20;;;;;;;;;;5068149;28;20263;-63
2021/12/04 06:36:48;;;;;;;86.00;30.90;;;;;;;;;;5066348;28;20082;-62
2021/12/04 06:39:14;;;;;;;49.50;28.50;;;;;;;;;;5064267;28;20136;-63
2021/12/04 06:41:41;;;;;;;58.17;26.75;;;;;;;;;;5068079;28;20161;-63
2021/12/04 06:44:07;;;;;;;91.55;36.38;;;;;;;;;;5065333;28;20380;-63
2021/12/04 06:46:34;;;;;;;53.13;25.60;;;;;;;;;;5071440;28;20739;-62
2021/12/04 06:52:02;;;;;;;123.05;34.00;;;;;;;;;;5052974;28;20378;-63
2021/12/04 06:54:35;;;;;;;59.25;26.83;;;;;;;;;;5069477;28;20037;-63
2021/12/04 06:57:03;;;;;;;75.07;26.40;;;;;;;;;;5059271;28;20037;-63
2021/12/04 06:59:32;;;;;;;65.25;28.00;;;;;;;;;;5059570;28;20611;-63
2021/12/04 07:01:58;;;;;;;76.80;30.77;;;;;;;;;;5060107;28;20055;-63
2021/12/04 07:04:34;;;;;;;59.15;25.98;;;;;;;;;;5059935;28;20040;-63
2021/12/04 07:07:05;;;;;;;75.75;29.83;;;;;;;;;;5060221;28;20521;-63
2021/12/04 07:09:31;;;;;;;72.55;26.58;;;;;;;;;;5065215;28;20075;-63
2021/12/04 07:11:59;;;;;;;75.40;27.35;;;;;;;;;;5059104;28;20505;-63
2021/12/04 07:14:30;;;;;;;51.28;25.02;;;;;;;;;;5062966;28;20060;-63
2021/12/04 07:16:59;;;;;;;103.13;32.67;;;;;;;;;;5060960;28;20052;-63
2021/12/04 07:19:25;;;;;;;65.53;28.98;;;;;;;;;;5067125;28;20045;-63
2021/12/04 07:21:51;;;;;;;92.72;28.02;;;;;;;;;;5067646;28;20036;-63
2021/12/04 07:24:18;;;;;;;68.13;25.38;;;;;;;;;;5063313;28;20040;-63
2021/12/04 07:26:44;;;;;;;74.57;24.90;;;;;;;;;;5061936;28;20045;-63
2021/12/04 07:29:10;;;;;;;68.43;26.27;;;;;;;;;;5062884;28;20474;-63
2021/12/04 07:31:39;;;;;;;79.18;26.45;;;;;;;;;;5065312;28;20231;-63
2021/12/04 07:34:06;;;;;;;61.95;24.20;;;;;;;;;;5065844;28;20036;-63
2021/12/04 07:36:32;;;;;;;96.38;32.38;;;;;;;;;;5065066;28;20461;-63
2021/12/04 07:38:59;;;;;;;51.30;24.90;;;;;;;;;;5066432;28;20037;-63
2021/12/04 07:41:26;;;;;;;74.20;28.63;;;;;;;;;;5064000;28;20036;-63
2021/12/04 07:43:52;;;;;;;80.03;27.35;;;;;;;;;;5066020;28;20267;-63
2021/12/04 07:46:18;;;;;;;68.60;26.70;;;;;;;;;;5061171;28;20089;-63
2021/12/04 07:48:45;;;;;;;54.45;23.42;;;;;;;;;;5057664;28;20075;-63
2021/12/04 07:51:11;;;;;;;52.03;24.77;;;;;;;;;;5063397;28;20048;-63
2021/12/04 07:53:37;;;;;;;56.05;26.95;;;;;;;;;;5058031;28;20092;-63
2021/12/04 07:56:06;;;;;;;62.38;26.27;;;;;;;;;;5057997;28;20353;-63
2021/12/04 07:58:32;;;;;;;55.40;23.45;;;;;;;;;;5055840;28;20036;-63
2021/12/04 08:00:58;;;;;;;62.97;22.88;;;;;;;;;;5050248;28;20040;-63
2021/12/04 08:03:25;;;;;;;36.72;22.27;;;;;;;;;;5057865;28;20401;-63
2021/12/04 08:05:52;;;;;;;63.63;27.75;;;;;;;;;;5058346;28;20081;-63
2021/12/04 08:08:18;;;;;;;76.63;25.58;;;;;;;;;;5061659;28;20094;-63
2021/12/04 08:10:44;;;;;;;89.75;30.85;;;;;;;;;;5055906;28;20041;-63
2021/12/04 08:13:10;;;;;;;57.20;24.38;;;;;;;;;;5054219;28;20037;-63
2021/12/04 08:15:37;;;;;;;102.07;29.48;;;;;;;;;;5054041;28;20056;-63
2021/12/04 08:18:08;;;;;;;44.38;21.58;;;;;;;;;;5061161;28;20044;-63
2021/12/04 08:20:34;;;;;;;48.85;23.63;;;;;;;;;;5059147;28;20613;-63
2021/12/04 08:23:00;;;;;;;55.03;24.27;;;;;;;;;;5061939;28;20232;-63
2021/12/04 08:25:27;;;;;;;57.38;22.83;;;;;;;;;;5061113;28;20091;-63
2021/12/04 08:27:53;;;;;;;60.63;23.98;;;;;;;;;;5061836;28;20051;-63
2021/12/04 08:30:23;;;;;;;59.00;24.98;;;;;;;;;;5061810;28;20233;-63
2021/12/04 08:32:52;;;;;;;86.68;29.52;;;;;;;;;;5060220;28;20107;-63
2021/12/04 08:35:19;;;;;;;69.38;28.52;;;;;;;;;;5061482;28;20036;-63
2021/12/04 08:37:46;;;;;;;61.08;24.60;;;;;;;;;;5061465;28;20325;-63
2021/12/04 08:40:14;;;;;;;87.03;28.90;;;;;;;;;;5058268;28;20083;-63
2021/12/04 08:42:41;;;;;;;92.32;28.63;;;;;;;;;;5062747;28;20045;-63
2021/12/04 08:45:08;;;;;;;57.88;24.27;;;;;;;;;;5067018;28;20329;-63
2021/12/04 08:47:35;;;;;;;49.03;23.27;;;;;;;;;;5066087;28;20389;-62
2021/12/04 08:50:01;;;;;;;46.88;23.20;;;;;;;;;;5068487;28;20095;-63
2021/12/04 08:52:27;;;;;;;50.67;23.33;;;;;;;;;;5062753;28;20041;-63
2021/12/04 08:54:53;;;;;;;52.30;23.85;;;;;;;;;;5056228;28;20090;-63
2021/12/04 08:57:19;;;;;;;60.15;27.02;;;;;;;;;;5061222;28;20029;-63
2021/12/04 08:59:47;;;;;;;59.28;26.05;;;;;;;;;;5060410;28;20127;-63
2021/12/04 09:02:14;;;;;;;63.75;28.75;;;;;;;;;;5056183;28;20452;-63
2021/12/04 09:04:40;;;;;;;69.80;26.15;;;;;;;;;;5066256;28;20509;-63
2021/12/04 09:07:07;;;;;;;59.42;23.20;;;;;;;;;;5068469;28;20044;-63
2021/12/04 09:09:34;;;;;;;77.65;29.35;;;;;;;;;;5068568;28;20076;-63
2021/12/04 09:12:04;;;;;;;55.97;22.77;;;;;;;;;;5063214;28;20072;-63
2021/12/04 09:14:32;;;;;;;78.15;28.10;;;;;;;;;;5066395;28;20586;-63
2021/12/04 09:16:59;;;;;;;40.58;22.08;;;;;;;;;;5062198;28;20079;-63
2021/12/04 09:19:25;;;;;;;48.38;21.65;;;;;;;;;;5064215;28;20398;-63
2021/12/04 09:21:52;;;;;;;52.97;19.95;;;;;;;;;;5049165;28;20044;-63
2021/12/04 09:24:25;;;;;;;50.60;20.17;;;;;;;;;;5065910;28;20076;-63
2021/12/04 09:29:51;;;;;;;39.00;20.40;;;;;;;;;;5058489;28;20392;-63
2021/12/04 10:16:04;;;;;;;40.35;22.10;;;;;;;;;;5064290;28;20090;-63
2021/12/04 10:34:58;;;;;;;44.58;21.83;;;;;;;;;;5063243;28;20060;-63
2021/12/04 10:37:27;;;;;;;41.78;20.73;;;;;;;;;;5061685;28;20033;-63
2021/12/04 10:39:55;;;;;;;55.40;24.67;;;;;;;;;;5065160;28;20047;-62
2021/12/04 10:42:29;;;;;;;38.97;21.25;;;;;;;;;;5061533;28;20045;-63
2021/12/04 10:44:56;;;;;;;45.58;24.35;;;;;;;;;;5053645;28;20498;-62
2021/12/04 10:47:26;;;;;;;43.38;22.35;;;;;;;;;;5064183;28;20203;-63
2021/12/04 10:55:14;;;;;;;40.42;21.35;;;;;;;;;;5065430;28;20532;-62
2021/12/04 11:00:32;;;;;;;44.63;22.15;;;;;;;;;;5044106;28;20394;-63
2021/12/04 11:03:06;;;;;;;44.35;21.73;;;;;;;;;;5063134;28;20123;-63
2021/12/04 11:28:33;;;;;;;41.72;20.08;;;;;;;;;;5063305;28;20040;-63
2021/12/04 11:38:35;;;;;;;40.13;19.13;;;;;;;;;;5060470;28;20045;-62
2021/12/04 11:49:10;;;;;;;34.22;18.98;;;;;;;;;;5061240;28;20564;-63
2021/12/04 11:51:44;;;;;;;36.08;19.13;;;;;;;;;;5064030;28;20064;-62
2021/12/04 11:54:12;;;;;;;35.47;18.98;;;;;;;;;;5057704;28;20136;-62
2021/12/04 11:56:39;;;;;;;40.08;19.48;;;;;;;;;;5062393;28;20568;-63
2021/12/04 11:59:06;;;;;;;37.03;18.75;;;;;;;;;;5062426;28;20033;-63
2021/12/04 12:01:33;;;;;;;33.45;18.77;;;;;;;;;;5062015;28;20486;-63
2021/12/04 12:04:03;;;;;;;37.38;17.50;;;;;;;;;;5062734;28;20045;-63
2021/12/04 12:06:31;;;;;;;29.02;15.90;;;;;;;;;;5061822;28;20043;-63
2021/12/04 12:09:01;;;;;;;28.48;16.80;;;;;;;;;;5062150;28;20068;-62
2021/12/04 12:11:28;;;;;;;28.20;15.25;;;;;;;;;;5064809;28;20112;-63
2021/12/04 12:14:14;;;;;;;32.35;17.55;;;;;;;;;;5070320;28;20036;-63
2021/12/04 12:16:46;;;;;;;30.42;16.38;;;;;;;;;;5065570;28;20394;-63
2021/12/04 12:19:23;;;;;;;33.80;16.55;;;;;;;;;;5068007;28;20048;-63
2021/12/04 12:27:56;;;;;;;31.15;17.23;;;;;;;;;;5057415;28;20450;-63
2021/12/04 12:33:07;;;;;;;29.17;16.17;;;;;;;;;;5060686;28;20517;-62
2021/12/04 12:38:10;;;;;;;25.90;15.85;;;;;;;;;;5057948;28;20389;-63
2021/12/04 12:40:37;;;;;;;35.05;16.70;;;;;;;;;;5060074;28;20048;-63
2021/12/04 12:43:11;;;;;;;27.02;15.52;;;;;;;;;;5058808;28;20043;-62
2021/12/04 12:45:37;;;;;;;30.48;16.73;;;;;;;;;;5054532;28;20402;-63
2021/12/04 12:48:10;;;;;;;30.80;16.13;;;;;;;;;;5058028;28;20036;-63
2021/12/04 12:50:46;;;;;;;33.05;17.17;;;;;;;;;;5055212;28;20537;-62
2021/12/04 12:53:28;;;;;;;32.40;18.45;;;;;;;;;;5054544;28;20842;-63
2021/12/04 12:56:05;;;;;;;35.90;17.73;;;;;;;;;;5066494;28;20041;-63
2021/12/04 12:58:38;;;;;;;29.83;16.55;;;;;;;;;;5061873;28;20044;-63
2021/12/04 13:12:23;;;;;;;28.35;16.58;;;;;;;;;;5055439;28;20072;-63
2021/12/04 13:14:55;;;;;;;35.08;17.48;;;;;;;;;;5057036;28;20047;-62
2021/12/04 13:17:23;;;;;;;31.90;16.65;;;;;;;;;;5057074;28;20418;-62
2021/12/04 13:19:58;;;;;;;33.40;17.27;;;;;;;;;;5061782;28;20045;-63
2021/12/04 13:22:26;;;;;;;29.25;15.55;;;;;;;;;;5053367;28;20032;-63
2021/12/04 13:24:54;;;;;;;32.13;16.70;;;;;;;;;;5056739;28;20041;-62
2021/12/04 13:30:04;;;;;;;31.90;16.70;;;9.20;99.90;;;;;;5052192;28;20111;-63
2021/12/04 13:32:33;;;;;;;34.85;17.30;;;5.50;99.90;;;;;;5055250;28;20525;-62
2021/12/04 13:35:05;;;;;;;31.92;17.00;;;5.30;99.90;;;;;;5056422;28;20045;-63
2021/12/04 13:37:31;;;;;;;27.70;16.25;;;5.30;99.90;;;;;;5060429;28;20036;-62
2021/12/04 13:40:02;;;;;;;36.15;15.82;;;5.30;99.90;;;;;;5063408;28;20494;-62
2021/12/04 13:42:28;;;;;;;27.85;15.18;;;5.30;99.90;;;;;;5066088;28;20098;-62
2021/12/04 13:44:58;;;;;;;26.42;14.77;;;5.30;99.90;;;;;;5059606;28;20090;-63
2021/12/04 13:47:25;;;;;;;26.73;14.70;;;5.30;99.90;;;;;;5052841;28;20044;-63
2021/12/04 13:49:54;;;;;;;29.52;16.48;;;5.30;99.90;;;;;;5060838;28;20109;-63
2021/12/04 13:52:20;;;;;;;30.45;15.68;;;5.40;99.90;;;;;;5055329;28;20120;-63
2021/12/04 13:54:52;;;;;;;26.05;14.63;;;5.40;99.90;;;;;;5054466;28;20483;-63
2021/12/04 13:57:18;;;;;;;29.40;15.13;;;5.40;99.90;;;;;;5058593;28;20269;-62
2021/12/04 13:59:44;;;;;;;35.47;16.85;;;5.30;99.90;;;;;;5063880;28;20036;-63
2021/12/04 14:02:26;;;;;;;26.02;15.27;;;5.40;99.90;;;;;;5057667;28;20232;-62
2021/12/04 14:05:05;;;;;;;27.83;14.55;;;;;;;;;;5066968;28;20032;-63
2021/12/04 14:07:33;;;;;;;28.77;16.42;;;5.30;99.90;;;;;;5060951;28;20048;-63
2021/12/04 14:10:09;;;;;;;27.85;16.05;;;5.40;99.90;;;;;;5061878;28;20052;-63
2021/12/04 14:12:35;;;;;;;28.02;15.27;;;5.40;99.90;;;;;;5064764;28;20119;-63
2021/12/04 14:15:08;;;;;;;30.70;17.02;;;5.30;99.90;;;;;;5063769;28;20124;-62
2021/12/04 14:17:34;;;;;;;25.20;14.10;;;5.40;99.90;;;;;;5062609;28;20053;-63
2021/12/04 14:20:00;;;;;;;26.67;14.07;;;5.40;99.90;;;;;;5066199;28;20520;-62
2021/12/04 14:22:26;;;;;;;28.92;15.35;;;5.30;99.90;;;;;;5063003;28;20070;-63
2021/12/04 14:24:57;;;;;;;28.23;15.27;;;5.40;99.90;;;;;;5071039;28;20033;-62
2021/12/04 14:27:29;;;;;;;29.48;14.95;;;5.40;99.90;;;;;;5063151;28;20408;-63
2021/12/04 14:29:59;;;;;;;26.00;15.50;;;5.40;99.90;;;;;;5063484;28;20147;-62
2021/12/04 14:32:30;;;;;;;28.77;14.85;;;5.40;99.90;;;;;;5064840;28;20041;-63
2021/12/04 14:35:03;;;;;;;30.77;16.20;;;5.40;99.90;;;;;;5063317;28;20028;-63
2021/12/04 14:37:34;;;;;;;24.52;15.02;;;5.30;99.90;;;;;;5061212;28;20211;-63
2021/12/04 14:40:00;;;;;;;27.95;15.15;;;5.40;99.90;;;;;;5067772;28;20272;-63
2021/12/04 14:42:29;;;;;;;27.30;15.77;;;5.30;99.90;;;;;;5062868;28;20072;-63
2021/12/04 14:45:08;;;;;;;31.35;15.82;;;5.30;99.90;;;;;;5064964;28;20655;-63
2021/12/04 14:47:41;;;;;;;27.33;14.73;;;5.30;99.90;;;;;;5063447;28;20140;-63
2021/12/04 14:50:09;;;;;;;29.08;16.48;;;5.30;99.90;;;;;;5064577;28;20181;-63
2021/12/04 14:52:35;;;;;;;32.35;16.83;;;5.30;99.90;;;;;;5064239;28;20124;-63
2021/12/04 14:55:24;;;;;;;30.85;15.40;;;5.30;99.90;;;;;;5067971;28;20045;-62
2021/12/04 14:57:51;;;;;;;40.67;17.90;;;5.30;99.90;;;;;;5062756;28;20317;-63
2021/12/04 15:00:24;;;;;;;41.05;17.98;;;5.30;99.90;;;;;;5062400;28;20102;-63
2021/12/04 15:03:11;;;;;;;45.65;19.63;;;5.30;99.90;;;;;;5063288;28;20039;-63
2021/12/04 15:05:47;;;;;;;35.88;17.42;;;5.30;99.90;;;;;;5065558;28;20047;-63
2021/12/04 15:08:16;;;;;;;33.30;17.02;;;5.30;99.90;;;;;;5059907;28;20052;-62
2021/12/04 15:10:47;;;;;;;31.88;19.33;;;5.30;99.90;;;;;;5065410;28;20260;-63
2021/12/04 15:13:22;;;;;;;28.10;16.92;;;5.30;99.90;;;;;;5061032;28;20041;-63
2021/12/04 15:15:51;;;;;;;46.03;23.95;;;5.30;99.90;;;;;;5065156;28;20048;-63
2021/12/04 15:18:20;;;;;;;38.28;19.05;;;5.30;99.90;;;;;;5061716;28;20386;-63
2021/12/04 15:20:54;;;;;;;37.00;19.75;;;5.30;99.90;;;;;;5063859;28;20531;-63
2021/12/04 15:23:22;;;;;;;39.13;19.33;;;5.30;99.90;;;;;;5055312;28;20044;-63
2021/12/04 15:25:54;;;;;;;37.95;18.13;;;5.30;99.90;;;;;;5050541;28;20051;-63
2021/12/04 15:28:25;;;;;;;47.17;24.83;;;5.30;99.90;;;;;;5050562;28;20510;-63
2021/12/04 15:30:54;;;;;;;42.72;21.80;;;5.30;99.90;;;;;;5057830;28;20332;-63
2021/12/04 15:33:21;;;;;;;34.22;17.95;;;5.30;99.90;;;;;;5060654;28;20941;-62
2021/12/04 15:35:49;;;;;;;46.22;21.17;;;5.30;99.90;;;;;;5063569;28;20043;-63
2021/12/04 15:38:33;;;;;;;32.80;19.60;;;5.30;99.90;;;;;;5058569;28;20123;-63
2021/12/04 15:44:13;;;;;;;55.80;24.55;;;5.30;99.90;;;;;;5059392;28;20094;-63
2021/12/04 15:47:04;;;;;;;43.35;21.05;;;5.30;99.90;;;;;;5061422;28;20050;-63
2021/12/04 15:55:11;;;;;;;48.67;24.02;;;5.30;99.90;;;;;;5064875;28;20045;-63
2021/12/04 15:57:38;;;;;;;42.42;21.15;;;5.30;99.90;;;;;;5056006;28;20029;-63
2021/12/04 16:00:11;;;;;;;43.95;21.92;;;5.30;99.90;;;;;;5061613;28;20055;-63
2021/12/04 16:02:42;;;;;;;41.63;20.85;;;5.30;99.90;;;;;;5064283;28;20048;-63
2021/12/04 16:05:19;;;;;;;47.60;22.08;;;5.30;99.90;;;;;;5061022;28;20102;-63
2021/12/04 16:07:49;;;;;;;37.63;21.92;;;5.30;99.90;;;;;;5060855;28;20054;-63
2021/12/04 16:10:19;;;;;;;37.08;19.83;;;5.30;99.90;;;;;;5064348;28;20324;-63
2021/12/04 16:12:50;;;;;;;36.17;17.55;;;5.30;99.90;;;;;;5063082;28;20055;-63
2021/12/04 16:15:19;;;;;;;35.00;20.77;;;5.30;99.90;;;;;;5056111;28;21026;-63
2021/12/04 16:17:46;;;;;;;32.90;18.85;;;5.30;99.90;;;;;;5064005;28;20044;-63
2021/12/04 16:20:14;;;;;;;41.97;19.63;;;5.30;99.90;;;;;;5062912;28;20040;-63
2021/12/04 16:22:41;;;;;;;44.60;20.70;;;5.30;99.90;;;;;;5055451;28;20032;-63
2021/12/04 16:25:17;;;;;;;41.78;19.27;;;5.30;99.90;;;;;;5095159;28;20048;-63
2021/12/04 16:27:55;;;;;;;30.85;17.80;;;5.30;99.90;;;;;;5062372;28;20043;-63
2021/12/04 16:38:02;;;;;;;27.70;16.45;;;5.30;99.90;;;;;;5058661;28;20094;-63
2021/12/04 16:40:37;;;;;;;33.38;18.90;;;5.30;99.90;;;;;;5055897;28;20041;-63
2021/12/04 16:43:12;;;;;;;26.80;15.60;;;5.30;99.90;;;;;;5057335;28;20559;-63
2021/12/04 16:45:48;;;;;;;32.20;18.95;;;5.30;99.90;;;;;;5060687;28;20381;-63
2021/12/04 16:48:15;;;;;;;25.15;15.07;;;5.30;99.90;;;;;;5061851;28;20079;-63
2021/12/04 16:58:44;;;;;;;29.30;16.07;;;5.30;99.90;;;;;;5063320;28;20350;-63
2021/12/04 17:01:10;;;;;;;25.58;14.98;;;5.40;99.90;;;;;;5061986;28;20653;-63
2021/12/04 17:03:36;;;;;;;21.02;14.05;;;5.30;99.90;;;;;;5056476;28;20153;-64
2021/12/04 17:06:03;;;;;;;25.05;14.93;;;5.40;99.90;;;;;;5067033;28;20283;-63
2021/12/04 17:08:29;;;;;;;27.60;14.60;;;5.30;99.90;;;;;;5065399;28;20032;-63
2021/12/04 17:10:54;;;;;;;27.92;16.33;;;5.40;99.90;;;;;;5066533;28;20394;-63
2021/12/04 17:13:20;;;;;;;24.25;13.80;;;5.40;99.90;;;;;;5067318;28;20032;-63
2021/12/04 17:15:48;;;;;;;26.80;15.40;;;5.30;99.90;;;;;;5064494;28;20052;-63
2021/12/04 17:18:20;;;;;;;24.33;15.82;;;5.40;99.90;;;;;;5051411;28;20510;-63
2021/12/04 17:20:48;;;;;;;28.08;14.40;;;5.30;99.90;;;;;;5061226;28;20039;-63
2021/12/04 17:23:16;;;;;;;27.77;16.05;;;5.30;99.90;;;;;;5065536;28;20052;-63
2021/12/04 17:25:42;;;;;;;23.17;13.40;;;5.30;99.90;;;;;;5066838;28;20449;-63
2021/12/04 17:28:11;;;;;;;21.58;14.07;;;5.30;99.90;;;;;;5066294;28;20467;-63
2021/12/04 17:30:38;;;;;;;24.17;15.05;;;5.30;99.90;;;;;;5064008;28;20047;-63
2021/12/04 17:33:05;;;;;;;25.00;14.63;;;5.30;99.90;;;;;;5070207;28;20028;-63
2021/12/04 17:35:31;;;;;;;26.65;14.27;;;5.30;99.90;;;;;;5063345;28;20182;-63
2021/12/04 17:38:00;;;;;;;26.10;16.17;;;5.40;99.90;;;;;;5065517;28;20059;-63
2021/12/04 17:40:26;;;;;;;26.90;14.57;;;5.30;99.90;;;;;;5066251;28;20051;-63